sensor_id;sensor_type;location;lat;lon;timestamp;pressure;altitude;pressure_sealevel;temperature;humidity
67052;BME280;53957;47.222;18.670;2023-02-19T00:02:46;100349.66;;;9.54;100.00
67052;BME280;53957;47.222;18.670;2023-02-19T00:05:49;100353.06;;;9.65;100.00
67052;BME280;53957;47.222;18.670;2023-02-19T00:08:53;100346.38;;;9.73;100.00
67052;BME280;53957;47.222;18.670;2023-02-19T00:11:56;100327.12;;;9.86;100.00
67052;BME280;53957;47.222;18.670;2023-02-19T00:14:59;100331.06;;;9.99;100.00
67052;BME280;53957;47.222;18.670;2023-02-19T00:18:04;100332.37;;;10.02;100.00
67052;BME280;53957;47.222;18.670;2023-02-19T00:21:07;100323.94;;;9.89;100.00
67052;BME280;53957;47.222;18.670;2023-02-19T00:24:12;100325.28;;;9.87;100.00
67052;BME280;53957;47.222;18.670;2023-02-19T00:27:15;100338.63;;;9.76;100.00
67052;BME280;53957;47.222;18.670;2023-02-19T00:30:19;100347.75;;;9.65;100.00
67052;BME280;53957;47.222;18.670;2023-02-19T00:33:22;100349.06;;;9.67;100.00
67052;BME280;53957;47.222;18.670;2023-02-19T00:36:27;100354.66;;;9.71;100.00
67052;BME280;53957;47.222;18.670;2023-02-19T00:39:30;100355.72;;;9.70;100.00
67052;BME280;53957;47.222;18.670;2023-02-19T00:42:34;100373.00;;;9.78;100.00
67052;BME280;53957;47.222;18.670;2023-02-19T00:45:37;100374.34;;;9.70;100.00
67052;BME280;53957;47.222;18.670;2023-02-19T00:49:00;100372.97;;;9.83;100.00
67052;BME280;53957;47.222;18.670;2023-02-19T00:52:04;100382.06;;;9.77;100.00
67052;BME280;53957;47.222;18.670;2023-02-19T00:55:08;100390.56;;;9.84;100.00
67052;BME280;53957;47.222;18.670;2023-02-19T00:58:11;100379.41;;;9.77;100.00
67052;BME280;53957;47.222;18.670;2023-02-19T01:01:15;100381.97;;;9.92;100.00
67052;BME280;53957;47.222;18.670;2023-02-19T01:04:19;100381.50;;;9.80;100.00
67052;BME280;53957;47.222;18.670;2023-02-19T01:07:23;100375.41;;;9.79;100.00
67052;BME280;53957;47.222;18.670;2023-02-19T01:10:27;100377.00;;;9.75;100.00
67052;BME280;53957;47.222;18.670;2023-02-19T01:13:31;100368.75;;;9.77;100.00
67052;BME280;53957;47.222;18.670;2023-02-19T01:16:36;100367.16;;;9.76;100.00
67052;BME280;53957;47.222;18.670;2023-02-19T01:19:40;100356.56;;;9.65;100.00
67052;BME280;53957;47.222;18.670;2023-02-19T01:22:43;100352.31;;;9.59;100.00
67052;BME280;53957;47.222;18.670;2023-02-19T01:25:46;100357.69;;;9.44;100.00
67052;BME280;53957;47.222;18.670;2023-02-19T01:28:50;100348.16;;;9.27;100.00
67052;BME280;53957;47.222;18.670;2023-02-19T01:31:54;100354.84;;;9.04;100.00
67052;BME280;53957;47.222;18.670;2023-02-19T01:34:57;100344.97;;;9.10;100.00
67052;BME280;53957;47.222;18.670;2023-02-19T01:38:00;100350.28;;;9.10;100.00
67052;BME280;53957;47.222;18.670;2023-02-19T01:41:05;100351.38;;;8.98;100.00
67052;BME280;53957;47.222;18.670;2023-02-19T01:47:15;100342.88;;;9.07;100.00
67052;BME280;53957;47.222;18.670;2023-02-19T01:50:23;100343.94;;;9.06;100.00
67052;BME280;53957;47.222;18.670;2023-02-19T01:53:37;100332.78;;;8.88;100.00
67052;BME280;53957;47.222;18.670;2023-02-19T01:56:42;100335.44;;;8.73;100.00
67052;BME280;53957;47.222;18.670;2023-02-19T01:59:48;100338.66;;;8.54;100.00
67052;BME280;53957;47.222;18.670;2023-02-19T02:02:54;100339.69;;;8.37;100.00
67052;BME280;53957;47.222;18.670;2023-02-19T02:09:09;100332.22;;;8.29;100.00
67052;BME280;53957;47.222;18.670;2023-02-19T02:12:32;100336.44;;;8.15;100.00
67052;BME280;53957;47.222;18.670;2023-02-19T02:15:53;100329.97;;;7.74;100.00
67052;BME280;53957;47.222;18.670;2023-02-19T02:19:50;100331.06;;;7.84;100.00
67052;BME280;53957;47.222;18.670;2023-02-19T02:22:42;100338.03;;;8.16;100.00
67052;BME280;53957;47.222;18.670;2023-02-19T02:29:24;100317.38;;;8.59;100.00
67052;BME280;53957;47.222;18.670;2023-02-19T02:36:09;100336.25;;;8.73;100.00
67052;BME280;53957;47.222;18.670;2023-02-19T02:39:21;100344.25;;;8.73;100.00
67052;BME280;53957;47.222;18.670;2023-02-19T02:42:25;100347.12;;;8.92;100.00
67052;BME280;53957;47.222;18.670;2023-02-19T02:45:32;100351.66;;;9.02;100.00
67052;BME280;53957;47.222;18.670;2023-02-19T02:48:57;100358.03;;;8.96;100.00
67052;BME280;53957;47.222;18.670;2023-02-19T02:52:01;100350.06;;;8.96;100.00
67052;BME280;53957;47.222;18.670;2023-02-19T02:55:29;100354.56;;;9.06;100.00
67052;BME280;53957;47.222;18.670;2023-02-19T02:58:33;100363.09;;;9.08;100.00
67052;BME280;53957;47.222;18.670;2023-02-19T03:05:09;100345.75;;;9.21;100.00
67052;BME280;53957;47.222;18.670;2023-02-19T03:11:44;100323.69;;;9.10;100.00
67052;BME280;53957;47.222;18.670;2023-02-19T03:15:09;100301.09;;;9.02;100.00
67052;BME280;53957;47.222;18.670;2023-02-19T03:18:33;100291.00;;;8.94;100.00
67052;BME280;53957;47.222;18.670;2023-02-19T03:25:18;100291.84;;;8.89;100.00
67052;BME280;53957;47.222;18.670;2023-02-19T03:28:41;100291.28;;;8.92;100.00
67052;BME280;53957;47.222;18.670;2023-02-19T03:32:16;100290.00;;;8.74;100.00
67052;BME280;53957;47.222;18.670;2023-02-19T03:35:26;100304.09;;;8.54;100.00
67052;BME280;53957;47.222;18.670;2023-02-19T03:41:51;100320.53;;;8.41;100.00
67052;BME280;53957;47.222;18.670;2023-02-19T03:45:29;100319.47;;;8.31;100.00
67052;BME280;53957;47.222;18.670;2023-02-19T03:52:00;100323.16;;;8.10;100.00
67052;BME280;53957;47.222;18.670;2023-02-19T03:55:09;100314.13;;;8.00;100.00
67052;BME280;53957;47.222;18.670;2023-02-19T03:58:16;100308.53;;;7.92;100.00
67052;BME280;53957;47.222;18.670;2023-02-19T04:01:33;100310.84;;;7.78;100.00
67052;BME280;53957;47.222;18.670;2023-02-19T04:04:47;100319.88;;;7.71;100.00
67052;BME280;53957;47.222;18.670;2023-02-19T04:07:58;100311.59;;;7.63;100.00
67052;BME280;53957;47.222;18.670;2023-02-19T04:11:05;100311.31;;;7.59;100.00
67052;BME280;53957;47.222;18.670;2023-02-19T04:14:33;100308.09;;;7.52;100.00
67052;BME280;53957;47.222;18.670;2023-02-19T04:17:58;100309.41;;;7.39;100.00
67052;BME280;53957;47.222;18.670;2023-02-19T04:21:03;100319.16;;;7.28;100.00
67052;BME280;53957;47.222;18.670;2023-02-19T04:24:18;100318.81;;;7.14;100.00
67052;BME280;53957;47.222;18.670;2023-02-19T04:27:23;100326.53;;;7.21;100.00
67052;BME280;53957;47.222;18.670;2023-02-19T04:30:27;100322.88;;;7.27;100.00
67052;BME280;53957;47.222;18.670;2023-02-19T04:33:30;100331.97;;;7.47;100.00
67052;BME280;53957;47.222;18.670;2023-02-19T04:36:34;100336.78;;;7.50;100.00
67052;BME280;53957;47.222;18.670;2023-02-19T04:39:37;100333.66;;;7.63;100.00
67052;BME280;53957;47.222;18.670;2023-02-19T04:42:40;100332.09;;;7.72;100.00
67052;BME280;53957;47.222;18.670;2023-02-19T04:45:43;100334.25;;;7.86;100.00
67052;BME280;53957;47.222;18.670;2023-02-19T04:48:46;100331.34;;;7.87;100.00
67052;BME280;53957;47.222;18.670;2023-02-19T04:51:50;100336.34;;;7.73;100.00
67052;BME280;53957;47.222;18.670;2023-02-19T04:54:54;100339.94;;;7.47;100.00
67052;BME280;53957;47.222;18.670;2023-02-19T04:57:57;100335.37;;;7.37;100.00
67052;BME280;53957;47.222;18.670;2023-02-19T05:01:00;100339.31;;;7.24;100.00
67052;BME280;53957;47.222;18.670;2023-02-19T05:04:03;100328.66;;;7.14;100.00
67052;BME280;53957;47.222;18.670;2023-02-19T05:07:07;100329.69;;;7.07;100.00
67052;BME280;53957;47.222;18.670;2023-02-19T05:10:10;100323.75;;;6.95;100.00
67052;BME280;53957;47.222;18.670;2023-02-19T05:13:14;100327.69;;;6.92;100.00
67052;BME280;53957;47.222;18.670;2023-02-19T05:16:17;100318.94;;;6.87;100.00
67052;BME280;53957;47.222;18.670;2023-02-19T05:19:41;100311.50;;;6.89;100.00
67052;BME280;53957;47.222;18.670;2023-02-19T05:22:44;100309.94;;;6.88;100.00
67052;BME280;53957;47.222;18.670;2023-02-19T05:26:28;100311.75;;;6.87;100.00
67052;BME280;53957;47.222;18.670;2023-02-19T05:29:33;100318.91;;;6.82;100.00
67052;BME280;53957;47.222;18.670;2023-02-19T05:32:56;100306.66;;;6.75;100.00
67052;BME280;53957;47.222;18.670;2023-02-19T05:36:20;100305.09;;;6.80;100.00
67052;BME280;53957;47.222;18.670;2023-02-19T05:39:52;100303.16;;;6.70;100.00
67052;BME280;53957;47.222;18.670;2023-02-19T05:42:55;100307.84;;;6.57;100.00
67052;BME280;53957;47.222;18.670;2023-02-19T05:46:21;100308.69;;;6.63;100.00
67052;BME280;53957;47.222;18.670;2023-02-19T05:49:45;100314.00;;;6.63;100.00
67052;BME280;53957;47.222;18.670;2023-02-19T05:53:17;100317.69;;;6.62;100.00
67052;BME280;53957;47.222;18.670;2023-02-19T05:59:30;100326.41;;;6.57;100.00
67052;BME280;53957;47.222;18.670;2023-02-19T06:02:33;100332.03;;;6.66;100.00
67052;BME280;53957;47.222;18.670;2023-02-19T06:05:39;100325.16;;;6.70;100.00
67052;BME280;53957;47.222;18.670;2023-02-19T06:08:42;100330.47;;;6.70;100.00
67052;BME280;53957;47.222;18.670;2023-02-19T06:11:55;100327.59;;;6.77;100.00
67052;BME280;53957;47.222;18.670;2023-02-19T06:15:01;100329.50;;;6.82;100.00
67052;BME280;53957;47.222;18.670;2023-02-19T06:18:10;100321.87;;;6.90;100.00
67052;BME280;53957;47.222;18.670;2023-02-19T06:21:14;100326.69;;;6.99;100.00
67052;BME280;53957;47.222;18.670;2023-02-19T06:24:20;100335.19;;;7.01;100.00
67052;BME280;53957;47.222;18.670;2023-02-19T06:27:43;100325.88;;;6.98;100.00
67052;BME280;53957;47.222;18.670;2023-02-19T06:30:49;100328.81;;;6.97;100.00
67052;BME280;53957;47.222;18.670;2023-02-19T06:33:57;100336.00;;;7.01;100.00
67052;BME280;53957;47.222;18.670;2023-02-19T06:37:01;100332.53;;;7.01;100.00
67052;BME280;53957;47.222;18.670;2023-02-19T06:40:25;100329.88;;;7.01;100.00
67052;BME280;53957;47.222;18.670;2023-02-19T06:43:48;100333.59;;;7.00;100.00
67052;BME280;53957;47.222;18.670;2023-02-19T06:46:54;100333.91;;;7.08;100.00
67052;BME280;53957;47.222;18.670;2023-02-19T06:50:00;100336.06;;;7.12;100.00
67052;BME280;53957;47.222;18.670;2023-02-19T06:53:03;100328.66;;;7.14;100.00
67052;BME280;53957;47.222;18.670;2023-02-19T06:56:35;100323.06;;;7.10;100.00
67052;BME280;53957;47.222;18.670;2023-02-19T06:59:41;100318.56;;;7.16;100.00
67052;BME280;53957;47.222;18.670;2023-02-19T07:02:45;100320.44;;;7.15;100.00
67052;BME280;53957;47.222;18.670;2023-02-19T07:06:08;100316.47;;;7.18;100.00
67052;BME280;53957;47.222;18.670;2023-02-19T07:09:16;100324.13;;;7.14;100.00
67052;BME280;53957;47.222;18.670;2023-02-19T07:12:29;100329.16;;;7.16;100.00
67052;BME280;53957;47.222;18.670;2023-02-19T07:15:33;100328.97;;;7.22;100.00
67052;BME280;53957;47.222;18.670;2023-02-19T07:18:36;100336.09;;;7.17;100.00
67052;BME280;53957;47.222;18.670;2023-02-19T07:21:41;100338.19;;;7.15;100.00
67052;BME280;53957;47.222;18.670;2023-02-19T07:24:44;100336.09;;;7.22;100.00
67052;BME280;53957;47.222;18.670;2023-02-19T07:27:49;100335.06;;;7.28;100.00
67052;BME280;53957;47.222;18.670;2023-02-19T07:30:59;100336.09;;;7.22;100.00
67052;BME280;53957;47.222;18.670;2023-02-19T07:34:03;100333.47;;;7.27;100.00
67052;BME280;53957;47.222;18.670;2023-02-19T07:37:06;100338.25;;;7.25;100.00
67052;BME280;53957;47.222;18.670;2023-02-19T07:40:09;100331.09;;;7.31;100.00
67052;BME280;53957;47.222;18.670;2023-02-19T07:43:12;100334.03;;;7.34;100.00
67052;BME280;53957;47.222;18.670;2023-02-19T07:46:16;100338.31;;;7.35;100.00
67052;BME280;53957;47.222;18.670;2023-02-19T07:49:18;100330.91;;;7.43;100.00
67052;BME280;53957;47.222;18.670;2023-02-19T07:52:42;100338.59;;;7.44;100.00
67052;BME280;53957;47.222;18.670;2023-02-19T07:56:24;100338.59;;;7.44;100.00
67052;BME280;53957;47.222;18.670;2023-02-19T07:59:55;100347.88;;;7.41;100.00
67052;BME280;53957;47.222;18.670;2023-02-19T08:03:17;100353.75;;;7.44;100.00
67052;BME280;53957;47.222;18.670;2023-02-19T08:06:23;100360.00;;;7.27;100.00
67052;BME280;53957;47.222;18.670;2023-02-19T08:09:26;100373.25;;;7.22;100.00
67052;BME280;53957;47.222;18.670;2023-02-19T08:12:29;100376.44;;;7.19;100.00
67052;BME280;53957;47.222;18.670;2023-02-19T08:16:13;100384.59;;;7.12;100.00
67052;BME280;53957;47.222;18.670;2023-02-19T08:19:32;100376.84;;;7.00;100.00
67052;BME280;53957;47.222;18.670;2023-02-19T08:22:35;100383.19;;;6.99;100.00
67052;BME280;53957;47.222;18.670;2023-02-19T08:25:41;100392.16;;;6.93;100.00
67052;BME280;53957;47.222;18.670;2023-02-19T08:28:44;100389.50;;;6.93;100.00
67052;BME280;53957;47.222;18.670;2023-02-19T08:32:09;100385.53;;;6.96;100.00
67052;BME280;53957;47.222;18.670;2023-02-19T08:35:18;100381.03;;;6.96;100.00
67052;BME280;53957;47.222;18.670;2023-02-19T08:38:22;100341.31;;;7.01;100.00
67052;BME280;53957;47.222;18.670;2023-02-19T08:41:31;100323.84;;;7.11;100.00
67052;BME280;53957;47.222;18.670;2023-02-19T08:44:35;100311.28;;;7.44;100.00
67052;BME280;53957;47.222;18.670;2023-02-19T08:47:59;100304.97;;;7.60;100.00
67052;BME280;53957;47.222;18.670;2023-02-19T08:51:12;100307.69;;;7.70;100.00
67052;BME280;53957;47.222;18.670;2023-02-19T08:54:38;100319.16;;;8.07;100.00
67052;BME280;53957;47.222;18.670;2023-02-19T08:57:41;100317.88;;;8.20;100.00
67052;BME280;53957;47.222;18.670;2023-02-19T09:00:48;100323.12;;;7.94;100.00
67052;BME280;53957;47.222;18.670;2023-02-19T09:04:12;100317.84;;;8.10;100.00
67052;BME280;53957;47.222;18.670;2023-02-19T09:07:16;100330.06;;;8.21;100.00
67052;BME280;53957;47.222;18.670;2023-02-19T09:10:30;100336.44;;;8.04;100.00
67052;BME280;53957;47.222;18.670;2023-02-19T09:13:55;100332.44;;;7.97;100.00
67052;BME280;53957;47.222;18.670;2023-02-19T09:17:02;100330.75;;;7.75;100.00
67052;BME280;53957;47.222;18.670;2023-02-19T09:20:25;100331.00;;;7.63;100.00
67052;BME280;53957;47.222;18.670;2023-02-19T09:23:32;100338.25;;;7.94;100.00
67052;BME280;53957;47.222;18.670;2023-02-19T09:26:54;100326.84;;;7.88;100.00
67052;BME280;53957;47.222;18.670;2023-02-19T09:30:18;100327.81;;;7.71;100.00
67052;BME280;53957;47.222;18.670;2023-02-19T09:33:21;100349.63;;;7.79;100.00
67052;BME280;53957;47.222;18.670;2023-02-19T09:36:25;100347.44;;;7.65;100.00
67052;BME280;53957;47.222;18.670;2023-02-19T09:39:39;100343.47;;;7.63;100.00
67052;BME280;53957;47.222;18.670;2023-02-19T09:42:48;100360.72;;;7.60;100.00
67052;BME280;53957;47.222;18.670;2023-02-19T09:46:01;100346.38;;;7.61;100.00
67052;BME280;53957;47.222;18.670;2023-02-19T09:49:15;100366.00;;;7.55;100.00
67052;BME280;53957;47.222;18.670;2023-02-19T09:52:43;100362.56;;;7.54;100.00
67052;BME280;53957;47.222;18.670;2023-02-19T09:56:17;100368.91;;;7.53;100.00
67052;BME280;53957;47.222;18.670;2023-02-19T09:59:48;100356.44;;;7.59;100.00
67052;BME280;53957;47.222;18.670;2023-02-19T10:06:57;100338.50;;;7.77;100.00
67052;BME280;53957;47.222;18.670;2023-02-19T10:10:18;100319.66;;;7.83;100.00
67052;BME280;53957;47.222;18.670;2023-02-19T10:14:06;100303.97;;;7.82;100.00
67052;BME280;53957;47.222;18.670;2023-02-19T10:17:29;100310.94;;;8.09;100.00
67052;BME280;53957;47.222;18.670;2023-02-19T10:20:58;100318.87;;;8.03;100.00
67052;BME280;53957;47.222;18.670;2023-02-19T10:24:25;100318.03;;;7.82;100.00
67052;BME280;53957;47.222;18.670;2023-02-19T10:27:50;100308.00;;;8.00;100.00
67052;BME280;53957;47.222;18.670;2023-02-19T10:31:23;100301.13;;;8.19;100.00
67052;BME280;53957;47.222;18.670;2023-02-19T10:34:47;100284.91;;;8.42;100.00
67052;BME280;53957;47.222;18.670;2023-02-19T10:38:36;100281.22;;;8.63;100.00
67052;BME280;53957;47.222;18.670;2023-02-19T10:42:22;100264.53;;;9.39;100.00
67052;BME280;53957;47.222;18.670;2023-02-19T10:49:18;100248.72;;;9.58;100.00
67052;BME280;53957;47.222;18.670;2023-02-19T10:52:26;100238.69;;;9.89;100.00
67052;BME280;53957;47.222;18.670;2023-02-19T10:55:33;100258.59;;;10.37;100.00
67052;BME280;53957;47.222;18.670;2023-02-19T10:59:23;100237.25;;;10.37;100.00
67052;BME280;53957;47.222;18.670;2023-02-19T11:02:30;100237.88;;;10.23;100.00
67052;BME280;53957;47.222;18.670;2023-02-19T11:05:36;100225.75;;;10.07;100.00
67052;BME280;53957;47.222;18.670;2023-02-19T11:11:57;100239.63;;;10.04;100.00
67052;BME280;53957;47.222;18.670;2023-02-19T11:15:22;100238.53;;;9.70;100.00
67052;BME280;53957;47.222;18.670;2023-02-19T11:18:32;100227.13;;;9.64;100.00
67052;BME280;53957;47.222;18.670;2023-02-19T11:21:59;100216.72;;;9.68;100.00
67052;BME280;53957;47.222;18.670;2023-02-19T11:25:20;100220.06;;;9.84;100.00
67052;BME280;53957;47.222;18.670;2023-02-19T11:28:43;100214.75;;;10.48;100.00
67052;BME280;53957;47.222;18.670;2023-02-19T11:31:46;100207.97;;;11.09;100.00
67052;BME280;53957;47.222;18.670;2023-02-19T11:34:51;100209.75;;;11.38;100.00
67052;BME280;53957;47.222;18.670;2023-02-19T11:38:16;100214.78;;;11.59;100.00
67052;BME280;53957;47.222;18.670;2023-02-19T11:48:30;100178.25;;;12.81;100.00
67052;BME280;53957;47.222;18.670;2023-02-19T11:55:07;100170.84;;;12.64;100.00
67052;BME280;53957;47.222;18.670;2023-02-19T12:05:59;100158.87;;;13.12;100.00
67052;BME280;53957;47.222;18.670;2023-02-19T12:35:36;100149.88;;;14.13;92.22
67052;BME280;53957;47.222;18.670;2023-02-19T12:38:49;100140.62;;;14.28;90.19
67052;BME280;53957;47.222;18.670;2023-02-19T12:42:04;100144.56;;;14.30;85.08
67052;BME280;53957;47.222;18.670;2023-02-19T12:45:23;100142.34;;;14.24;87.94
67052;BME280;53957;47.222;18.670;2023-02-19T12:52:07;100149.03;;;14.35;85.09
67052;BME280;53957;47.222;18.670;2023-02-19T12:55:21;100153.19;;;14.18;87.30
67052;BME280;53957;47.222;18.670;2023-02-19T12:58:31;100155.50;;;14.43;84.13
67052;BME280;53957;47.222;18.670;2023-02-19T13:01:47;100164.47;;;14.38;82.16
67052;BME280;53957;47.222;18.670;2023-02-19T13:05:03;100153.31;;;14.13;83.01
67052;BME280;53957;47.222;18.670;2023-02-19T13:11:36;100153.41;;;13.99;81.64
67052;BME280;53957;47.222;18.670;2023-02-19T13:15:40;100135.75;;;13.98;84.55
67052;BME280;53957;47.222;18.670;2023-02-19T13:18:53;100144.88;;;14.29;82.13
67052;BME280;53957;47.222;18.670;2023-02-19T13:22:10;100118.91;;;14.47;85.04
67052;BME280;53957;47.222;18.670;2023-02-19T13:33:29;100117.19;;;14.11;84.92
67052;BME280;53957;47.222;18.670;2023-02-19T13:36:35;100115.78;;;14.13;81.06
67052;BME280;53957;47.222;18.670;2023-02-19T13:39:49;100110.69;;;14.03;82.68
67052;BME280;53957;47.222;18.670;2023-02-19T13:42:57;100105.03;;;14.13;83.48
67052;BME280;53957;47.222;18.670;2023-02-19T13:46:08;100104.59;;;14.11;79.70
67052;BME280;53957;47.222;18.670;2023-02-19T13:59:20;100117.50;;;14.09;80.88
67052;BME280;53957;47.222;18.670;2023-02-19T14:02:36;100126.69;;;13.85;81.19
67052;BME280;53957;47.222;18.670;2023-02-19T14:06:02;100125.22;;;14.11;78.72
67052;BME280;53957;47.222;18.670;2023-02-19T14:13:06;100111.63;;;14.39;75.72
67052;BME280;53957;47.222;18.670;2023-02-19T14:23:22;100154.66;;;14.25;75.69
67052;BME280;53957;47.222;18.670;2023-02-19T14:26:46;100174.66;;;13.64;79.44
67052;BME280;53957;47.222;18.670;2023-02-19T14:29:51;100236.03;;;12.68;92.47
67052;BME280;53957;47.222;18.670;2023-02-19T14:33:16;100263.69;;;11.16;100.00
67052;BME280;53957;47.222;18.670;2023-02-19T14:37:00;100250.03;;;10.05;100.00
67052;BME280;53957;47.222;18.670;2023-02-19T14:40:32;100228.47;;;9.62;100.00
67052;BME280;53957;47.222;18.670;2023-02-19T14:44:01;100222.03;;;9.68;100.00
67052;BME280;53957;47.222;18.670;2023-02-19T14:47:46;100232.47;;;9.59;100.00
67052;BME280;53957;47.222;18.670;2023-02-19T14:51:37;100222.09;;;9.97;100.00
67052;BME280;53957;47.222;18.670;2023-02-19T14:55:33;100224.75;;;10.32;100.00
67052;BME280;53957;47.222;18.670;2023-02-19T15:02:42;100226.53;;;10.42;100.00
67052;BME280;53957;47.222;18.670;2023-02-19T15:05:55;100212.44;;;10.41;100.00
67052;BME280;53957;47.222;18.670;2023-02-19T15:09:04;100199.53;;;10.19;100.00
67052;BME280;53957;47.222;18.670;2023-02-19T15:12:32;100193.91;;;10.21;100.00
67052;BME280;53957;47.222;18.670;2023-02-19T15:16:08;100200.91;;;10.17;100.00
67052;BME280;53957;47.222;18.670;2023-02-19T15:19:34;100213.47;;;10.11;100.00
67052;BME280;53957;47.222;18.670;2023-02-19T15:23:22;100214.03;;;10.08;100.00
67052;BME280;53957;47.222;18.670;2023-02-19T15:26:51;100235.84;;;10.10;100.00
67052;BME280;53957;47.222;18.670;2023-02-19T15:30:23;100245.28;;;10.31;100.00
67052;BME280;53957;47.222;18.670;2023-02-19T15:33:28;100252.72;;;10.40;100.00
67052;BME280;53957;47.222;18.670;2023-02-19T15:37:12;100267.19;;;10.23;100.00
67052;BME280;53957;47.222;18.670;2023-02-19T15:40:53;100279.81;;;10.12;100.00
67052;BME280;53957;47.222;18.670;2023-02-19T15:48:33;100289.25;;;9.94;100.00
67052;BME280;53957;47.222;18.670;2023-02-19T15:52:08;100284.00;;;9.84;100.00
67052;BME280;53957;47.222;18.670;2023-02-19T15:55:39;100280.97;;;9.51;100.00
67052;BME280;53957;47.222;18.670;2023-02-19T15:59:31;100290.53;;;9.57;100.00
67052;BME280;53957;47.222;18.670;2023-02-19T16:02:58;100298.50;;;9.62;100.00
67052;BME280;53957;47.222;18.670;2023-02-19T16:06:11;100295.13;;;9.41;100.00
67052;BME280;53957;47.222;18.670;2023-02-19T16:09:44;100295.41;;;9.40;100.00
67052;BME280;53957;47.222;18.670;2023-02-19T16:13:10;100309.72;;;9.49;100.00
67052;BME280;53957;47.222;18.670;2023-02-19T16:16:26;100343.06;;;9.36;100.00
67052;BME280;53957;47.222;18.670;2023-02-19T16:19:57;100347.56;;;9.35;100.00
67052;BME280;53957;47.222;18.670;2023-02-19T16:23:04;100364.66;;;9.19;100.00
67052;BME280;53957;47.222;18.670;2023-02-19T16:26:23;100372.13;;;8.91;100.00
67052;BME280;53957;47.222;18.670;2023-02-19T16:29:50;100370.53;;;8.49;100.00
67052;BME280;53957;47.222;18.670;2023-02-19T16:36:50;100361.44;;;8.34;100.00
67052;BME280;53957;47.222;18.670;2023-02-19T18:20:40;100507.53;;;7.28;100.00
67052;BME280;53957;47.222;18.670;2023-02-19T18:24:07;100503.25;;;7.22;100.00
67052;BME280;53957;47.222;18.670;2023-02-19T18:27:10;100486.16;;;7.07;100.00
67052;BME280;53957;47.222;18.670;2023-02-19T18:30:16;100487.69;;;7.03;100.00
67052;BME280;53957;47.222;18.670;2023-02-19T18:33:21;100480.25;;;7.00;100.00
67052;BME280;53957;47.222;18.670;2023-02-19T18:36:24;100471.97;;;6.91;100.00
67052;BME280;53957;47.222;18.670;2023-02-19T18:39:28;100478.63;;;6.94;100.00
67052;BME280;53957;47.222;18.670;2023-02-19T18:42:34;100471.50;;;6.72;100.00
67052;BME280;53957;47.222;18.670;2023-02-19T18:45:37;100480.09;;;6.85;100.00
67052;BME280;53957;47.222;18.670;2023-02-19T18:48:50;100467.37;;;6.82;100.00
67052;BME280;53957;47.222;18.670;2023-02-19T18:51:54;100470.13;;;6.65;100.00
67052;BME280;53957;47.222;18.670;2023-02-19T18:54:58;100476.75;;;6.67;100.00
67052;BME280;53957;47.222;18.670;2023-02-19T18:58:01;100473.41;;;6.50;100.00
67052;BME280;53957;47.222;18.670;2023-02-19T19:01:06;100477.16;;;6.54;100.00
67052;BME280;53957;47.222;18.670;2023-02-19T19:04:30;100489.62;;;6.53;100.00
67052;BME280;53957;47.222;18.670;2023-02-19T19:07:44;100487.69;;;6.49;100.00
67052;BME280;53957;47.222;18.670;2023-02-19T19:10:48;100487.09;;;6.41;100.00
67052;BME280;53957;47.222;18.670;2023-02-19T19:13:52;100486.97;;;6.31;100.00
67052;BME280;53957;47.222;18.670;2023-02-19T19:16:56;100489.06;;;6.29;100.00
67052;BME280;53957;47.222;18.670;2023-02-19T19:20:08;100497.75;;;6.24;100.00
67052;BME280;53957;47.222;18.670;2023-02-19T19:23:12;100497.75;;;6.24;100.00
67052;BME280;53957;47.222;18.670;2023-02-19T19:26:24;100520.72;;;6.19;100.00
67052;BME280;53957;47.222;18.670;2023-02-19T19:30:06;100524.59;;;6.33;100.00
67052;BME280;53957;47.222;18.670;2023-02-19T20:00:01;100554.56;;;6.56;100.00
67052;BME280;53957;47.222;18.670;2023-02-19T20:03:17;100569.34;;;6.52;100.00
67052;BME280;53957;47.222;18.670;2023-02-19T20:06:31;100567.31;;;6.59;100.00
67052;BME280;53957;47.222;18.670;2023-02-19T20:09:34;100562.81;;;6.59;100.00
67052;BME280;53957;47.222;18.670;2023-02-19T20:12:55;100575.72;;;6.51;100.00
67052;BME280;53957;47.222;18.670;2023-02-19T20:15:58;100585.31;;;6.57;100.00
67052;BME280;53957;47.222;18.670;2023-02-19T20:19:07;100590.53;;;6.52;100.00
67052;BME280;53957;47.222;18.670;2023-02-19T20:22:30;100591.62;;;6.51;100.00
67052;BME280;53957;47.222;18.670;2023-02-19T20:30:07;100606.41;;;6.29;100.00
67052;BME280;53957;47.222;18.670;2023-02-19T20:33:16;100622.63;;;6.33;100.00
67052;BME280;53957;47.222;18.670;2023-02-19T20:36:19;100637.72;;;6.33;100.00
67052;BME280;53957;47.222;18.670;2023-02-19T20:39:41;100638.44;;;6.28;100.00
67052;BME280;53957;47.222;18.670;2023-02-19T20:42:45;100653.31;;;6.29;100.00
67052;BME280;53957;47.222;18.670;2023-02-19T20:45:49;100646.91;;;6.25;100.00
67052;BME280;53957;47.222;18.670;2023-02-19T20:48:56;100663.75;;;6.19;100.00
67052;BME280;53957;47.222;18.670;2023-02-19T20:52:05;100671.59;;;6.13;100.00
67052;BME280;53957;47.222;18.670;2023-02-19T20:55:08;100695.28;;;6.03;100.00
67052;BME280;53957;47.222;18.670;2023-02-19T20:58:31;100696.81;;;5.99;100.00
67052;BME280;53957;47.222;18.670;2023-02-19T21:01:35;100720.91;;;5.86;100.00
67052;BME280;53957;47.222;18.670;2023-02-19T21:04:38;100730.00;;;5.61;100.00
67052;BME280;53957;47.222;18.670;2023-02-19T21:07:42;100738.97;;;5.60;100.00